createdAt,value
2023-04-25T00:00:18.878Z,12.24
2023-04-25T00:02:45.763Z,12.23
2023-04-25T00:05:13.120Z,12.23
2023-04-25T00:07:39.998Z,12.23
2023-04-25T00:10:07.689Z,12.20
2023-04-25T00:12:34.922Z,12.22
2023-04-25T00:15:01.898Z,12.08
2023-04-25T00:17:29.410Z,12.13
2023-04-25T00:19:56.913Z,12.22
2023-04-25T00:22:23.521Z,12.23
2023-04-25T00:24:50.493Z,12.22
2023-04-25T00:27:17.372Z,12.21
2023-04-25T00:29:43.965Z,12.21
2023-04-25T00:32:11.019Z,12.16
2023-04-25T00:34:37.710Z,12.20
2023-04-25T00:37:04.414Z,12.18
2023-04-25T00:39:31.455Z,12.16
2023-04-25T00:41:58.941Z,12.14
2023-04-25T00:44:26.186Z,12.13
2023-04-25T00:46:55.316Z,12.06
2023-04-25T00:49:22.174Z,12.12
2023-04-25T00:51:49.270Z,12.11
2023-04-25T00:54:16.756Z,12.08
2023-04-25T00:56:43.949Z,12.04
2023-04-25T00:59:10.899Z,12.02
2023-04-25T01:01:39.219Z,12.04
2023-04-25T01:04:06.240Z,12.03
2023-04-25T01:06:33.220Z,12.01
2023-04-25T01:09:00.696Z,11.99
2023-04-25T01:11:27.507Z,11.99
2023-04-25T01:13:54.202Z,11.99
2023-04-25T01:16:21.523Z,11.97
2023-04-25T01:18:48.908Z,11.95
2023-04-25T01:21:15.884Z,11.98
2023-04-25T01:23:43.763Z,11.98
2023-04-25T01:26:12.465Z,11.96
2023-04-25T01:28:46.680Z,11.94
2023-04-25T01:31:13.225Z,11.94
2023-04-25T01:33:40.256Z,11.93
2023-04-25T01:36:07.389Z,11.92
2023-04-25T01:38:34.336Z,11.88
2023-04-25T01:41:01.064Z,11.89
2023-04-25T01:43:27.983Z,11.81
2023-04-25T01:45:55.378Z,11.80
2023-04-25T01:48:22.120Z,11.88
2023-04-25T01:50:48.948Z,11.83
2023-04-25T01:53:15.885Z,11.81
2023-04-25T01:55:42.685Z,11.81
2023-04-25T01:58:11.023Z,11.81
2023-04-25T02:00:41.780Z,11.84
2023-04-25T02:03:09.598Z,11.84
2023-04-25T02:05:40.475Z,11.87
2023-04-25T02:08:09.297Z,11.85
2023-04-25T02:10:36.525Z,11.80
2023-04-25T02:13:03.929Z,11.85
2023-04-25T02:15:30.896Z,11.84
2023-04-25T02:17:57.825Z,11.78
2023-04-25T02:20:26.085Z,11.80
2023-04-25T02:22:52.846Z,11.66
2023-04-25T02:25:21.061Z,11.69
2023-04-25T02:27:49.319Z,11.71
2023-04-25T02:30:16.370Z,11.72
2023-04-25T02:32:43.204Z,11.70
2023-04-25T02:35:10.990Z,11.66
2023-04-25T02:37:38.956Z,11.66
2023-04-25T02:40:06.751Z,11.59
2023-04-25T02:42:33.770Z,11.56
2023-04-25T02:45:00.440Z,11.55
2023-04-25T02:47:27.346Z,11.52
2023-04-25T02:49:54.218Z,11.54
2023-04-25T02:52:22.245Z,11.51
2023-04-25T02:54:48.861Z,11.54
2023-04-25T02:57:15.966Z,11.50
2023-04-25T02:59:42.566Z,11.40
2023-04-25T03:02:09.294Z,11.43
2023-04-25T03:04:36.287Z,11.45
2023-04-25T03:07:03.514Z,11.43
2023-04-25T03:09:30.095Z,11.41
2023-04-25T03:11:56.864Z,11.35
2023-04-25T03:14:23.474Z,11.28
2023-04-25T03:16:50.171Z,11.35
2023-04-25T03:19:19.872Z,11.36
2023-04-25T03:21:46.559Z,11.36
2023-04-25T03:24:13.482Z,11.37
2023-04-25T03:26:40.554Z,11.34
2023-04-25T03:29:07.271Z,11.33
2023-04-25T03:31:33.965Z,11.33
2023-04-25T03:34:01.339Z,11.32
2023-04-25T03:36:28.045Z,11.29
2023-04-25T03:38:54.743Z,11.24
2023-04-25T03:41:22.164Z,11.16
2023-04-25T03:43:49.062Z,11.12
2023-04-25T03:46:15.896Z,11.19
2023-04-25T03:48:46.441Z,11.19
2023-04-25T03:51:13.058Z,11.22
2023-04-25T03:53:39.687Z,11.25
2023-04-25T03:56:06.910Z,11.23
2023-04-25T03:58:33.522Z,11.20
2023-04-25T04:01:00.356Z,11.19
2023-04-25T04:03:27.818Z,11.23
2023-04-25T04:05:54.839Z,11.27
2023-04-25T04:08:21.600Z,11.26
2023-04-25T04:10:48.526Z,11.26
2023-04-25T04:13:15.342Z,11.25
2023-04-25T04:15:42.123Z,11.28
2023-04-25T04:18:09.092Z,11.32
2023-04-25T04:20:35.938Z,11.36
2023-04-25T04:23:02.614Z,11.35
2023-04-25T04:25:29.965Z,11.35
2023-04-25T04:27:56.662Z,11.35
2023-04-25T04:30:30.792Z,11.39
2023-04-25T04:32:57.613Z,11.43
2023-04-25T04:35:25.836Z,11.48
2023-04-25T04:37:52.636Z,11.45
2023-04-25T04:40:19.664Z,11.48
2023-04-25T04:42:47.665Z,11.49
2023-04-25T04:45:14.742Z,11.50
2023-04-25T04:47:41.709Z,11.50
2023-04-25T04:50:10.329Z,11.52
2023-04-25T04:52:38.078Z,11.53
2023-04-25T04:55:06.538Z,11.55
2023-04-25T04:57:34.085Z,11.55
2023-04-25T05:00:00.961Z,11.62
2023-04-25T05:02:28.452Z,11.65
2023-04-25T05:04:55.625Z,11.68
2023-04-25T05:07:22.666Z,11.72
2023-04-25T05:09:51.155Z,11.69
2023-04-25T05:12:17.792Z,11.76
2023-04-25T05:14:44.776Z,11.78
2023-04-25T05:17:11.807Z,11.77
2023-04-25T05:19:39.033Z,11.78
2023-04-25T05:22:06.202Z,11.79
2023-04-25T05:24:32.816Z,11.83
2023-04-25T05:26:59.494Z,11.87
2023-04-25T05:29:26.448Z,11.89
2023-04-25T05:31:54.130Z,11.94
2023-04-25T05:34:20.938Z,11.98
2023-04-25T05:36:49.575Z,12.01
2023-04-25T05:39:19.346Z,12.05
2023-04-25T05:41:46.036Z,12.09
2023-04-25T05:44:13.036Z,12.15
2023-04-25T05:46:40.071Z,12.19
2023-04-25T05:49:06.804Z,12.24
2023-04-25T05:51:33.749Z,12.30
2023-04-25T05:54:00.704Z,12.35
2023-04-25T05:56:27.410Z,12.43
2023-04-25T05:58:54.622Z,12.50
2023-04-25T06:01:22.930Z,12.57
2023-04-25T06:03:50.084Z,12.63
2023-04-25T06:06:17.497Z,12.71
2023-04-25T06:08:48.413Z,12.79
2023-04-25T06:11:15.085Z,12.89
2023-04-25T06:13:41.950Z,12.95
2023-04-25T06:16:08.838Z,13.00
2023-04-25T06:18:35.802Z,13.07
2023-04-25T06:21:02.741Z,13.10
2023-04-25T06:23:29.578Z,13.19
2023-04-25T06:25:56.258Z,13.22
2023-04-25T06:28:23.273Z,13.29
2023-04-25T06:30:50.030Z,13.38
2023-04-25T06:33:16.624Z,13.44
2023-04-25T06:35:43.616Z,13.47
2023-04-25T06:38:10.384Z,13.41
2023-04-25T06:40:37.032Z,13.58
2023-04-25T06:43:03.893Z,13.71
2023-04-25T06:45:30.889Z,13.80
2023-04-25T06:47:57.584Z,13.98
2023-04-25T06:50:24.346Z,14.12
2023-04-25T06:52:51.359Z,14.24
2023-04-25T06:55:18.068Z,14.43
2023-04-25T06:57:45.108Z,14.56
2023-04-25T07:00:12.440Z,14.62
2023-04-25T07:02:39.269Z,14.69
2023-04-25T07:05:06.739Z,14.81
2023-04-25T07:07:33.468Z,14.87
2023-04-25T07:10:00.156Z,15.04
2023-04-25T07:12:26.898Z,15.14
2023-04-25T07:14:53.597Z,15.20
2023-04-25T07:17:20.246Z,15.31
2023-04-25T07:19:47.131Z,15.36
2023-04-25T07:22:13.922Z,15.37
2023-04-25T07:24:40.904Z,15.43
2023-04-25T07:27:07.847Z,15.51
2023-04-25T07:29:37.753Z,15.53
2023-04-25T07:32:04.924Z,15.63
2023-04-25T07:34:31.981Z,15.71
2023-04-25T07:37:00.306Z,15.77
2023-04-25T07:39:27.442Z,15.85
2023-04-25T07:41:55.353Z,15.90
2023-04-25T07:44:22.527Z,15.99
2023-04-25T07:46:49.262Z,16.04
2023-04-25T07:49:16.678Z,16.09
2023-04-25T07:51:44.543Z,16.05
2023-04-25T07:54:15.085Z,16.08
2023-04-25T07:56:52.167Z,16.07
2023-04-25T07:59:20.710Z,16.06
2023-04-25T08:01:47.814Z,16.08
2023-04-25T08:07:32.594Z,16.26
2023-04-25T08:09:59.254Z,16.34
2023-04-25T08:12:26.030Z,16.48
2023-04-25T08:14:52.765Z,16.57
2023-04-25T08:17:19.403Z,16.62
2023-04-25T08:19:46.119Z,16.70
2023-04-25T08:22:13.772Z,16.88
2023-04-25T08:24:40.518Z,16.95
2023-04-25T08:27:08.741Z,17.01
2023-04-25T08:29:36.151Z,17.18
2023-04-25T08:32:02.766Z,17.32
2023-04-25T08:34:29.386Z,17.47
2023-04-25T08:36:56.348Z,17.68
2023-04-25T08:39:23.057Z,17.98
2023-04-25T08:41:49.895Z,18.25
2023-04-25T08:44:17.948Z,18.50
2023-04-25T08:46:50.877Z,18.74
2023-04-25T08:49:20.065Z,18.91
2023-04-25T08:51:48.330Z,19.09
2023-04-25T08:54:30.210Z,19.25
2023-04-25T08:57:05.756Z,19.44
2023-04-25T08:59:33.452Z,19.45
2023-04-25T09:02:02.160Z,19.51
2023-04-25T09:04:31.253Z,19.62
2023-04-25T09:06:58.036Z,19.67
2023-04-25T09:09:25.460Z,19.69
2023-04-25T09:11:56.017Z,19.69
2023-04-25T09:14:26.163Z,19.72
2023-04-25T09:17:00.589Z,19.64
2023-04-25T09:19:39.836Z,19.61
2023-04-25T09:22:08.579Z,19.66
2023-04-25T09:24:41.000Z,19.76
2023-04-25T09:27:10.071Z,19.88
2023-04-25T09:29:38.879Z,19.96
2023-04-25T09:32:19.983Z,19.95
2023-04-25T09:34:52.046Z,19.85
2023-04-25T09:37:37.074Z,19.72
2023-04-25T09:40:08.424Z,19.71
2023-04-25T09:42:35.754Z,19.59
2023-04-25T09:45:04.880Z,19.57
2023-04-25T09:47:31.981Z,19.68
2023-04-25T09:49:59.482Z,19.71
2023-04-25T09:52:26.797Z,19.73
2023-04-25T09:54:54.113Z,19.90
2023-04-25T09:57:22.316Z,19.96
2023-04-25T09:59:51.148Z,20.01
2023-04-25T10:02:21.397Z,20.00
2023-04-25T10:04:54.007Z,19.96
2023-04-25T10:07:22.465Z,19.95
2023-04-25T10:09:51.454Z,19.93
2023-04-25T10:12:18.232Z,19.75
2023-04-25T10:14:46.878Z,19.63
2023-04-25T10:17:13.821Z,19.65
2023-04-25T10:19:40.530Z,19.80
2023-04-25T10:22:19.751Z,19.98
2023-04-25T10:24:47.755Z,20.22
2023-04-25T10:27:14.668Z,20.29
2023-04-25T10:29:44.428Z,20.27
2023-04-25T10:32:11.419Z,20.23
2023-04-25T10:34:48.290Z,20.09
2023-04-25T10:37:15.287Z,19.98
2023-04-25T10:39:43.453Z,19.93
2023-04-25T10:42:10.323Z,19.88
2023-04-25T10:44:39.192Z,19.94
2023-04-25T10:47:08.306Z,19.94
2023-04-25T10:49:42.507Z,19.96
2023-04-25T10:52:12.813Z,19.98
2023-04-25T10:54:59.184Z,20.00
2023-04-25T10:57:39.879Z,20.07
2023-04-25T11:00:10.795Z,20.13
2023-04-25T11:02:54.622Z,20.33
2023-04-25T11:05:54.959Z,20.39
2023-04-25T11:08:48.815Z,20.53
2023-04-25T11:11:17.398Z,20.63
2023-04-25T11:13:48.477Z,20.61
2023-04-25T11:18:48.854Z,20.76
2023-04-25T11:21:15.806Z,20.70
2023-04-25T11:23:48.896Z,20.87
2023-04-25T11:26:16.362Z,20.98
2023-04-25T11:28:46.318Z,21.17
2023-04-25T11:31:12.997Z,21.26
2023-04-25T11:33:41.790Z,21.23
2023-04-25T11:36:08.662Z,21.08
2023-04-25T11:38:35.659Z,21.01
2023-04-25T11:41:02.772Z,20.93
2023-04-25T11:43:29.477Z,20.89
2023-04-25T11:45:56.657Z,20.87
2023-04-25T11:48:25.883Z,20.84
2023-04-25T11:50:54.595Z,20.79
2023-04-25T11:53:21.507Z,20.63
2023-04-25T11:55:48.947Z,20.39
2023-04-25T11:58:15.577Z,20.11
2023-04-25T12:00:50.615Z,19.85
2023-04-25T12:03:19.777Z,19.67
2023-04-25T12:05:47.623Z,19.59
2023-04-25T12:08:15.516Z,19.40
2023-04-25T12:10:44.215Z,19.39
2023-04-25T12:13:27.810Z,19.24
2023-04-25T12:15:57.748Z,19.22
2023-04-25T12:18:28.951Z,19.02
2023-04-25T12:20:56.101Z,18.82
2023-04-25T12:23:29.743Z,18.61
2023-04-25T12:25:56.934Z,18.72
2023-04-25T12:28:25.307Z,18.73
2023-04-25T12:31:07.892Z,18.73
2023-04-25T12:33:38.717Z,18.52
2023-04-25T12:36:10.369Z,18.57
2023-04-25T12:38:41.785Z,18.52
2023-04-25T12:41:09.136Z,18.38
2023-04-25T12:43:36.328Z,18.30
2023-04-25T12:46:03.035Z,18.20
2023-04-25T12:48:29.713Z,18.07
2023-04-25T12:50:56.483Z,17.97
2023-04-25T12:53:25.377Z,17.81
2023-04-25T12:55:52.423Z,17.72
2023-04-25T12:58:20.173Z,17.58
2023-04-25T13:00:47.359Z,17.46
2023-04-25T13:03:14.360Z,17.36
2023-04-25T13:05:41.354Z,17.32
2023-04-25T13:08:08.493Z,17.27
2023-04-25T13:10:35.196Z,17.24
2023-04-25T13:13:02.381Z,17.19
2023-04-25T13:15:29.568Z,17.07
2023-04-25T13:17:57.221Z,17.03
2023-04-25T13:20:24.135Z,16.97
2023-04-25T13:22:50.954Z,16.96
2023-04-25T13:25:17.739Z,16.92
2023-04-25T13:27:45.843Z,16.89
2023-04-25T13:30:13.101Z,16.88
2023-04-25T13:32:40.652Z,16.82
2023-04-25T13:35:10.778Z,16.69
2023-04-25T13:37:38.398Z,16.65
2023-04-25T13:40:09.962Z,16.65
2023-04-25T13:42:37.834Z,16.62
2023-04-25T13:45:04.700Z,16.47
2023-04-25T13:47:31.708Z,16.33
2023-04-25T13:49:58.711Z,16.25
2023-04-25T13:52:25.444Z,16.14
2023-04-25T13:54:52.283Z,16.13
2023-04-25T13:57:19.685Z,16.13
2023-04-25T13:59:47.500Z,16.13
2023-04-25T14:02:14.456Z,16.13
2023-04-25T14:04:41.976Z,16.14
2023-04-25T14:07:09.461Z,16.13
2023-04-25T14:09:36.319Z,16.11
2023-04-25T14:12:03.232Z,16.01
2023-04-25T14:14:29.993Z,15.88
2023-04-25T14:16:58.093Z,15.83
2023-04-25T14:19:25.797Z,15.75
2023-04-25T14:21:52.432Z,15.48
2023-04-25T14:24:19.186Z,15.49
2023-04-25T14:26:46.104Z,15.33
2023-04-25T14:29:13.166Z,15.23
2023-04-25T14:31:41.495Z,15.09
2023-04-25T14:34:09.064Z,14.95
2023-04-25T14:36:37.467Z,14.92
2023-04-25T14:39:06.304Z,14.90
2023-04-25T14:41:33.345Z,14.96
2023-04-25T14:44:00.060Z,14.92
2023-04-25T14:46:27.680Z,14.96
2023-04-25T14:48:56.875Z,14.94
2023-04-25T14:51:23.709Z,14.83
2023-04-25T14:53:52.034Z,14.81
2023-04-25T14:56:19.813Z,14.80
2023-04-25T15:01:14.083Z,14.79
2023-04-25T15:03:48.607Z,14.78
2023-04-25T15:06:15.588Z,14.74
2023-04-25T15:08:42.225Z,14.62
2023-04-25T15:11:09.129Z,14.58
2023-04-25T15:13:36.004Z,14.55
2023-04-25T15:16:02.793Z,14.41
2023-04-25T15:18:29.469Z,14.50
2023-04-25T15:20:56.170Z,14.42
2023-04-25T15:23:23.055Z,14.37
2023-04-25T15:25:51.626Z,14.39
2023-04-25T15:28:18.373Z,14.39
2023-04-25T15:30:45.750Z,14.42
2023-04-25T15:33:12.537Z,14.48
2023-04-25T15:35:39.227Z,14.52
2023-04-25T15:38:06.615Z,14.55
2023-04-25T15:40:33.344Z,14.56
2023-04-25T15:43:00.591Z,14.53
2023-04-25T15:45:27.395Z,14.59
2023-04-25T15:47:57.386Z,14.59
2023-04-25T15:50:24.960Z,14.58
2023-04-25T15:52:52.187Z,14.52
2023-04-25T15:55:21.853Z,14.44
2023-04-25T15:57:51.223Z,14.44
2023-04-25T16:00:19.551Z,14.36
2023-04-25T16:02:48.647Z,14.36
2023-04-25T16:05:15.831Z,14.33
2023-04-25T16:07:44.026Z,14.34
2023-04-25T16:10:11.820Z,14.36
2023-04-25T16:12:42.093Z,14.37
2023-04-25T16:15:09.394Z,14.29
2023-04-25T16:17:36.475Z,14.19
2023-04-25T16:20:09.905Z,14.08
2023-04-25T16:22:38.892Z,13.96
2023-04-25T16:25:06.291Z,13.91
2023-04-25T16:27:34.790Z,13.79
2023-04-25T16:30:02.990Z,13.74
2023-04-25T16:32:29.857Z,13.72
2023-04-25T16:34:58.665Z,13.65
2023-04-25T16:37:26.200Z,13.58
2023-04-25T16:39:53.046Z,13.57
2023-04-25T16:42:19.853Z,13.54
2023-04-25T16:44:46.880Z,13.51
2023-04-25T16:47:16.871Z,13.53
2023-04-25T16:49:45.825Z,13.49
2023-04-25T16:52:13.146Z,13.45
2023-04-25T16:54:40.142Z,13.44
2023-04-25T16:57:11.021Z,13.46
2023-04-25T16:59:39.355Z,13.48
2023-04-25T17:02:08.473Z,13.40
2023-04-25T17:04:41.985Z,13.41
2023-04-25T17:07:09.186Z,13.34
2023-04-25T17:09:36.379Z,13.34
2023-04-25T17:12:10.884Z,13.28
2023-04-25T17:14:37.598Z,13.22
2023-04-25T17:17:04.556Z,13.19
2023-04-25T17:19:39.299Z,13.20
2023-04-25T17:22:06.598Z,13.17
2023-04-25T17:24:33.265Z,13.13
2023-04-25T17:27:00.156Z,13.04
2023-04-25T17:29:27.872Z,12.99
2023-04-25T17:31:54.617Z,12.90
2023-04-25T17:34:23.283Z,12.84
2023-04-25T17:36:50.185Z,12.77
2023-04-25T17:39:23.247Z,12.72
2023-04-25T17:41:50.112Z,12.73
2023-04-25T17:44:16.887Z,12.67
2023-04-25T17:46:43.798Z,12.69
2023-04-25T17:49:11.844Z,12.69
2023-04-25T17:51:38.632Z,12.66
2023-04-25T17:54:05.360Z,12.62
2023-04-25T17:56:34.310Z,12.56
2023-04-25T17:59:01.797Z,12.53
2023-04-25T18:01:30.991Z,12.49
2023-04-25T18:03:57.921Z,12.40
2023-04-25T18:06:24.816Z,12.36
2023-04-25T18:08:53.075Z,12.30
2023-04-25T18:11:20.151Z,12.31
2023-04-25T18:13:47.062Z,12.29
2023-04-25T18:16:16.009Z,12.33
2023-04-25T18:18:52.927Z,12.32
2023-04-25T18:21:20.347Z,12.33
2023-04-25T18:23:47.375Z,12.30
2023-04-25T18:26:14.599Z,12.17
2023-04-25T18:28:41.560Z,12.02
2023-04-25T18:31:09.555Z,11.97
2023-04-25T18:33:36.602Z,11.91
2023-04-25T18:36:03.321Z,11.85
2023-04-25T18:41:10.721Z,11.75
2023-04-25T18:43:46.870Z,11.64
2023-04-25T18:46:13.628Z,11.67
2023-04-25T18:48:42.694Z,11.61
2023-04-25T18:51:09.598Z,11.63
2023-04-25T18:53:37.466Z,11.60
2023-04-25T18:56:04.696Z,11.47
2023-04-25T18:58:31.651Z,11.46
2023-04-25T19:00:58.334Z,11.36
2023-04-25T19:03:25.377Z,11.40
2023-04-25T19:05:52.403Z,11.36
2023-04-25T19:08:19.249Z,11.36
2023-04-25T19:10:46.430Z,11.26
2023-04-25T19:13:13.754Z,11.16
2023-04-25T19:15:40.418Z,11.07
2023-04-25T19:18:07.117Z,11.07
2023-04-25T19:20:34.097Z,11.10
2023-04-25T19:23:01.099Z,11.10
2023-04-25T19:25:27.963Z,11.11
2023-04-25T19:27:54.718Z,11.07
2023-04-25T19:30:21.391Z,11.03
2023-04-25T19:32:48.119Z,10.95
2023-04-25T19:35:15.017Z,10.87
2023-04-25T19:37:47.052Z,10.80
2023-04-25T19:40:20.222Z,10.69
2023-04-25T19:42:47.355Z,10.62
2023-04-25T19:45:14.023Z,10.53
2023-04-25T19:47:42.053Z,10.47
2023-04-25T19:50:10.117Z,10.45
2023-04-25T19:52:38.002Z,10.48
2023-04-25T19:55:05.367Z,10.49
2023-04-25T19:57:37.826Z,10.48
2023-04-25T20:00:08.959Z,10.51
2023-04-25T20:02:35.705Z,10.55
2023-04-25T20:05:04.827Z,10.60
2023-04-25T20:07:31.555Z,10.66
2023-04-25T20:09:58.248Z,10.67
2023-04-25T20:12:24.994Z,10.66
2023-04-25T20:14:51.942Z,10.67
2023-04-25T20:17:18.606Z,10.65
2023-04-25T20:19:45.227Z,10.68
2023-04-25T20:22:12.231Z,10.75
2023-04-25T20:24:39.593Z,10.74
2023-04-25T20:27:07.404Z,10.80
2023-04-25T20:29:34.031Z,10.82
2023-04-25T20:32:02.709Z,10.86
2023-04-25T20:34:31.659Z,10.91
2023-04-25T20:36:58.329Z,10.94
2023-04-25T20:39:25.141Z,10.94
2023-04-25T20:41:52.666Z,10.94
2023-04-25T20:44:23.612Z,10.93
2023-04-25T20:46:51.676Z,10.90
2023-04-25T20:49:23.673Z,10.91
2023-04-25T20:51:50.411Z,10.86
2023-04-25T20:54:17.464Z,10.83
2023-04-25T20:56:44.863Z,10.83
2023-04-25T20:59:12.035Z,10.78
2023-04-25T21:01:38.716Z,10.84
2023-04-25T21:04:06.823Z,10.79
2023-04-25T21:06:34.664Z,10.85
2023-04-25T21:09:01.284Z,10.85
2023-04-25T21:11:28.096Z,10.83
2023-04-25T21:13:54.888Z,10.83
2023-04-25T21:16:21.550Z,10.85
2023-04-25T21:18:48.599Z,10.83
2023-04-25T21:21:15.341Z,10.84
2023-04-25T21:23:42.438Z,10.84
2023-04-25T21:26:09.188Z,10.79
2023-04-25T21:28:35.886Z,10.78
2023-04-25T21:31:03.225Z,10.75
2023-04-25T21:33:30.370Z,10.62
2023-04-25T21:35:57.004Z,10.59
2023-04-25T21:38:23.687Z,10.58
2023-04-25T21:40:50.464Z,10.54
2023-04-25T21:43:17.162Z,10.52
2023-04-25T21:46:06.339Z,10.48
2023-04-25T21:48:30.822Z,10.44
2023-04-25T21:50:57.570Z,10.44
2023-04-25T21:53:26.394Z,10.42
2023-04-25T21:55:53.481Z,10.48
2023-04-25T21:58:20.115Z,10.48
2023-04-25T22:00:46.833Z,10.49
2023-04-25T22:03:16.472Z,10.48
2023-04-25T22:05:44.326Z,10.52
2023-04-25T22:08:11.044Z,10.54
2023-04-25T22:10:40.102Z,10.53
2023-04-25T22:13:06.755Z,10.48
2023-04-25T22:15:33.381Z,10.38
2023-04-25T22:18:00.363Z,10.32
2023-04-25T22:20:28.055Z,10.27
2023-04-25T22:22:55.754Z,10.23
2023-04-25T22:25:26.794Z,10.18
2023-04-25T22:27:53.461Z,10.20
2023-04-25T22:30:20.227Z,10.20
2023-04-25T22:32:47.301Z,10.13
2023-04-25T22:35:14.012Z,10.11
2023-04-25T22:37:41.769Z,10.05
2023-04-25T22:40:11.828Z,10.00
2023-04-25T22:42:43.319Z,9.99
2023-04-25T22:45:11.026Z,9.97
2023-04-25T22:47:38.759Z,9.95
2023-04-25T22:50:13.166Z,9.92
2023-04-25T22:52:40.650Z,9.89
2023-04-25T22:55:07.531Z,9.87
2023-04-25T22:57:37.047Z,9.84
2023-04-25T23:00:09.769Z,9.82
2023-04-25T23:02:37.215Z,9.78
2023-04-25T23:05:06.997Z,9.83
2023-04-25T23:07:35.219Z,9.81
2023-04-25T23:10:02.087Z,9.83
2023-04-25T23:12:28.681Z,9.77
2023-04-25T23:14:55.644Z,9.74
2023-04-25T23:17:22.485Z,9.74
2023-04-25T23:19:49.107Z,9.73
2023-04-25T23:22:16.001Z,9.64
2023-04-25T23:24:42.608Z,9.64
2023-04-25T23:27:09.498Z,9.65
2023-04-25T23:29:36.528Z,9.59
2023-04-25T23:32:03.319Z,9.52
2023-04-25T23:34:31.651Z,9.30
2023-04-25T23:37:00.979Z,9.37
2023-04-25T23:39:28.223Z,9.32
2023-04-25T23:41:55.095Z,9.28
2023-04-25T23:44:23.601Z,9.22
2023-04-25T23:46:50.451Z,9.20
2023-04-25T23:49:17.114Z,9.24
2023-04-25T23:51:43.809Z,9.17
2023-04-25T23:54:10.494Z,9.12
2023-04-25T23:56:37.133Z,9.06
2023-04-25T23:59:04.177Z,9.01
